sensor_id;sensor_type;location;lat;lon;timestamp;P1;durP1;ratioP1;P2;durP2;ratioP2
6862;SDS011;3470;48.738;9.616;2023-05-01T00:02:12;8.40;;;7.10;;
6862;SDS011;3470;48.738;9.616;2023-05-01T00:04:38;6.83;;;6.20;;
6862;SDS011;3470;48.738;9.616;2023-05-01T00:07:03;7.87;;;7.17;;
6862;SDS011;3470;48.738;9.616;2023-05-01T00:09:29;7.87;;;7.07;;
6862;SDS011;3470;48.738;9.616;2023-05-01T00:11:56;8.80;;;7.57;;
6862;SDS011;3470;48.738;9.616;2023-05-01T00:14:21;8.20;;;7.40;;
6862;SDS011;3470;48.738;9.616;2023-05-01T00:16:47;6.90;;;6.20;;
6862;SDS011;3470;48.738;9.616;2023-05-01T00:19:13;7.00;;;6.30;;
6862;SDS011;3470;48.738;9.616;2023-05-01T00:21:42;7.67;;;6.90;;
6862;SDS011;3470;48.738;9.616;2023-05-01T00:24:12;7.17;;;6.27;;
6862;SDS011;3470;48.738;9.616;2023-05-01T00:26:39;7.70;;;6.90;;
6862;SDS011;3470;48.738;9.616;2023-05-01T00:29:04;7.33;;;6.63;;
6862;SDS011;3470;48.738;9.616;2023-05-01T00:31:30;8.03;;;6.70;;
6862;SDS011;3470;48.738;9.616;2023-05-01T00:33:55;8.00;;;7.07;;
6862;SDS011;3470;48.738;9.616;2023-05-01T00:36:21;8.00;;;7.20;;
6862;SDS011;3470;48.738;9.616;2023-05-01T00:38:47;7.50;;;6.77;;
6862;SDS011;3470;48.738;9.616;2023-05-01T00:41:12;7.40;;;6.43;;
6862;SDS011;3470;48.738;9.616;2023-05-01T00:43:38;7.60;;;6.90;;
6862;SDS011;3470;48.738;9.616;2023-05-01T00:46:04;7.70;;;6.57;;
6862;SDS011;3470;48.738;9.616;2023-05-01T00:48:30;9.90;;;6.77;;
6862;SDS011;3470;48.738;9.616;2023-05-01T00:50:55;7.53;;;6.77;;
6862;SDS011;3470;48.738;9.616;2023-05-01T00:53:24;7.90;;;7.10;;
6862;SDS011;3470;48.738;9.616;2023-05-01T00:55:50;7.40;;;6.70;;
6862;SDS011;3470;48.738;9.616;2023-05-01T00:58:17;8.63;;;7.30;;
6862;SDS011;3470;48.738;9.616;2023-05-01T08:43:06;6.55;;;5.72;;
6862;SDS011;3470;48.738;9.616;2023-05-01T08:45:32;6.75;;;5.65;;
6862;SDS011;3470;48.738;9.616;2023-05-01T08:48:03;6.18;;;5.55;;
6862;SDS011;3470;48.738;9.616;2023-05-01T08:50:30;5.65;;;5.15;;
6862;SDS011;3470;48.738;9.616;2023-05-01T08:52:59;7.13;;;5.25;;
6862;SDS011;3470;48.738;9.616;2023-05-01T08:55:26;5.93;;;5.43;;
6862;SDS011;3470;48.738;9.616;2023-05-01T08:57:53;5.70;;;5.20;;
6862;SDS011;3470;48.738;9.616;2023-05-01T09:00:19;6.10;;;5.53;;
6862;SDS011;3470;48.738;9.616;2023-05-01T09:02:46;5.68;;;5.18;;
6862;SDS011;3470;48.738;9.616;2023-05-01T09:05:16;5.90;;;5.35;;
6862;SDS011;3470;48.738;9.616;2023-05-01T09:07:43;6.43;;;5.80;;
6862;SDS011;3470;48.738;9.616;2023-05-01T09:10:11;6.93;;;5.78;;
6862;SDS011;3470;48.738;9.616;2023-05-01T09:12:41;7.03;;;5.63;;
6862;SDS011;3470;48.738;9.616;2023-05-01T09:15:10;5.88;;;5.38;;
6862;SDS011;3470;48.738;9.616;2023-05-01T09:17:36;6.20;;;5.60;;
6862;SDS011;3470;48.738;9.616;2023-05-01T09:20:02;6.10;;;5.50;;
6862;SDS011;3470;48.738;9.616;2023-05-01T09:22:32;5.97;;;5.47;;
6862;SDS011;3470;48.738;9.616;2023-05-01T09:24:58;5.93;;;5.43;;
6862;SDS011;3470;48.738;9.616;2023-05-01T09:27:28;6.47;;;5.45;;
6862;SDS011;3470;48.738;9.616;2023-05-01T09:29:57;6.30;;;5.72;;
6862;SDS011;3470;48.738;9.616;2023-05-01T09:32:24;6.72;;;5.60;;
6862;SDS011;3470;48.738;9.616;2023-05-01T09:34:54;8.40;;;7.53;;
6862;SDS011;3470;48.738;9.616;2023-05-01T09:37:35;6.60;;;6.00;;
6862;SDS011;3470;48.738;9.616;2023-05-01T09:40:02;6.10;;;5.50;;
6862;SDS011;3470;48.738;9.616;2023-05-01T09:42:33;6.28;;;5.68;;
6862;SDS011;3470;48.738;9.616;2023-05-01T09:45:22;6.07;;;5.47;;
6862;SDS011;3470;48.738;9.616;2023-05-01T09:47:48;5.72;;;5.20;;
6862;SDS011;3470;48.738;9.616;2023-05-01T09:52:55;5.07;;;4.40;;
6862;SDS011;3470;48.738;9.616;2023-05-01T09:55:21;4.70;;;4.30;;
6862;SDS011;3470;48.738;9.616;2023-05-01T09:57:48;6.18;;;4.57;;
6862;SDS011;3470;48.738;9.616;2023-05-01T10:00:14;4.95;;;4.55;;
6862;SDS011;3470;48.738;9.616;2023-05-01T10:02:42;5.05;;;4.55;;
6862;SDS011;3470;48.738;9.616;2023-05-01T10:05:10;4.53;;;4.13;;
6862;SDS011;3470;48.738;9.616;2023-05-01T10:07:36;5.10;;;4.60;;
6862;SDS011;3470;48.738;9.616;2023-05-01T10:10:18;5.40;;;4.32;;
6862;SDS011;3470;48.738;9.616;2023-05-01T10:12:45;5.90;;;4.68;;
6862;SDS011;3470;48.738;9.616;2023-05-01T10:15:14;5.18;;;4.68;;
6862;SDS011;3470;48.738;9.616;2023-05-01T10:17:41;4.75;;;4.28;;
6862;SDS011;3470;48.738;9.616;2023-05-01T10:20:07;8.27;;;7.47;;
6862;SDS011;3470;48.738;9.616;2023-05-01T10:22:35;5.70;;;4.78;;
6862;SDS011;3470;48.738;9.616;2023-05-01T10:25:02;5.75;;;4.53;;
6862;SDS011;3470;48.738;9.616;2023-05-01T10:27:31;5.95;;;4.72;;
6862;SDS011;3470;48.738;9.616;2023-05-01T10:29:58;4.97;;;4.55;;
6862;SDS011;3470;48.738;9.616;2023-05-01T10:32:26;5.88;;;5.28;;
6862;SDS011;3470;48.738;9.616;2023-05-01T10:34:54;4.72;;;4.18;;
6862;SDS011;3470;48.738;9.616;2023-05-01T10:37:45;4.13;;;3.72;;
6862;SDS011;3470;48.738;9.616;2023-05-01T10:40:54;5.68;;;4.15;;
6862;SDS011;3470;48.738;9.616;2023-05-01T10:43:20;5.43;;;4.93;;
6862;SDS011;3470;48.738;9.616;2023-05-01T10:45:53;4.72;;;4.20;;
6862;SDS011;3470;48.738;9.616;2023-05-01T10:51:09;4.90;;;4.50;;
6862;SDS011;3470;48.738;9.616;2023-05-01T10:53:45;4.78;;;4.28;;
6862;SDS011;3470;48.738;9.616;2023-05-01T11:01:34;4.93;;;4.30;;
6862;SDS011;3470;48.738;9.616;2023-05-01T11:04:01;7.05;;;4.80;;
6862;SDS011;3470;48.738;9.616;2023-05-01T11:06:28;4.90;;;4.20;;
6862;SDS011;3470;48.738;9.616;2023-05-01T11:08:55;4.55;;;4.15;;
6862;SDS011;3470;48.738;9.616;2023-05-01T11:19:51;4.85;;;4.05;;
6862;SDS011;3470;48.738;9.616;2023-05-01T11:22:11;3.72;;;3.42;;
6862;SDS011;3470;48.738;9.616;2023-05-01T11:24:37;4.40;;;3.80;;
6862;SDS011;3470;48.738;9.616;2023-05-01T11:27:03;4.35;;;3.67;;
6862;SDS011;3470;48.738;9.616;2023-05-01T11:29:31;4.43;;;3.75;;
6862;SDS011;3470;48.738;9.616;2023-05-01T11:31:58;4.75;;;3.90;;
6862;SDS011;3470;48.738;9.616;2023-05-01T11:34:24;4.38;;;3.97;;
6862;SDS011;3470;48.738;9.616;2023-05-01T11:36:51;4.00;;;3.70;;
6862;SDS011;3470;48.738;9.616;2023-05-01T11:39:17;3.85;;;3.55;;
6862;SDS011;3470;48.738;9.616;2023-05-01T11:41:43;4.10;;;3.80;;
6862;SDS011;3470;48.738;9.616;2023-05-01T11:44:16;4.10;;;3.70;;
6862;SDS011;3470;48.738;9.616;2023-05-01T11:46:42;4.10;;;3.67;;
6862;SDS011;3470;48.738;9.616;2023-05-01T11:49:08;5.70;;;4.03;;
6862;SDS011;3470;48.738;9.616;2023-05-01T11:51:35;4.63;;;4.22;;
6862;SDS011;3470;48.738;9.616;2023-05-01T11:54:01;4.45;;;4.05;;
6862;SDS011;3470;48.738;9.616;2023-05-01T11:56:31;6.07;;;5.05;;
6862;SDS011;3470;48.738;9.616;2023-05-01T11:58:59;18.65;;;15.43;;
6862;SDS011;3470;48.738;9.616;2023-05-01T12:01:33;33.80;;;23.48;;
6862;SDS011;3470;48.738;9.616;2023-05-01T12:04:00;21.33;;;15.32;;
6862;SDS011;3470;48.738;9.616;2023-05-01T12:11:42;5.38;;;4.88;;
6862;SDS011;3470;48.738;9.616;2023-05-01T12:14:09;4.57;;;4.13;;
6862;SDS011;3470;48.738;9.616;2023-05-01T12:16:35;4.93;;;4.50;;
6862;SDS011;3470;48.738;9.616;2023-05-01T12:19:01;7.63;;;4.07;;
6862;SDS011;3470;48.738;9.616;2023-05-01T12:21:28;4.70;;;4.30;;
6862;SDS011;3470;48.738;9.616;2023-05-01T12:23:53;4.88;;;4.47;;
6862;SDS011;3470;48.738;9.616;2023-05-01T12:26:20;5.22;;;4.72;;
6862;SDS011;3470;48.738;9.616;2023-05-01T12:31:20;7.28;;;6.47;;
6862;SDS011;3470;48.738;9.616;2023-05-01T12:36:22;6.22;;;5.60;;
6862;SDS011;3470;48.738;9.616;2023-05-01T12:44:00;9.60;;;8.63;;
6862;SDS011;3470;48.738;9.616;2023-05-01T12:46:28;6.35;;;5.75;;
6862;SDS011;3470;48.738;9.616;2023-05-01T12:48:53;8.48;;;7.57;;
6862;SDS011;3470;48.738;9.616;2023-05-01T12:51:20;5.97;;;5.43;;
6862;SDS011;3470;48.738;9.616;2023-05-01T12:53:45;5.13;;;4.47;;
6862;SDS011;3470;48.738;9.616;2023-05-01T12:56:21;8.50;;;7.70;;
6862;SDS011;3470;48.738;9.616;2023-05-01T12:58:48;5.10;;;4.60;;
6862;SDS011;3470;48.738;9.616;2023-05-01T13:01:22;5.07;;;4.57;;
6862;SDS011;3470;48.738;9.616;2023-05-01T13:03:50;6.03;;;5.53;;
6862;SDS011;3470;48.738;9.616;2023-05-01T13:06:16;9.95;;;9.05;;
6862;SDS011;3470;48.738;9.616;2023-05-01T13:08:41;4.68;;;4.28;;
6862;SDS011;3470;48.738;9.616;2023-05-01T13:11:10;9.45;;;8.60;;
6862;SDS011;3470;48.738;9.616;2023-05-01T13:13:41;5.20;;;4.70;;
6862;SDS011;3470;48.738;9.616;2023-05-01T13:16:11;4.43;;;4.00;;
6862;SDS011;3470;48.738;9.616;2023-05-01T13:18:44;5.93;;;5.43;;
6862;SDS011;3470;48.738;9.616;2023-05-01T13:21:12;6.75;;;5.93;;
6862;SDS011;3470;48.738;9.616;2023-05-01T13:23:50;5.82;;;5.22;;
6862;SDS011;3470;48.738;9.616;2023-05-01T13:26:24;7.18;;;5.15;;
6862;SDS011;3470;48.738;9.616;2023-05-01T13:28:55;6.35;;;5.72;;
6862;SDS011;3470;48.738;9.616;2023-05-01T13:31:21;5.40;;;4.90;;
6862;SDS011;3470;48.738;9.616;2023-05-01T13:33:48;5.97;;;5.47;;
6862;SDS011;3470;48.738;9.616;2023-05-01T13:36:15;6.28;;;5.68;;
6862;SDS011;3470;48.738;9.616;2023-05-01T13:38:42;4.90;;;4.50;;
6862;SDS011;3470;48.738;9.616;2023-05-01T13:41:13;4.72;;;4.07;;
6862;SDS011;3470;48.738;9.616;2023-05-01T13:43:43;5.65;;;3.78;;
6862;SDS011;3470;48.738;9.616;2023-05-01T13:46:09;4.88;;;4.03;;
6862;SDS011;3470;48.738;9.616;2023-05-01T13:48:38;4.70;;;4.30;;
6862;SDS011;3470;48.738;9.616;2023-05-01T13:51:04;5.13;;;4.63;;
6862;SDS011;3470;48.738;9.616;2023-05-01T13:53:31;5.07;;;4.55;;
6862;SDS011;3470;48.738;9.616;2023-05-01T13:55:57;5.28;;;4.78;;
6862;SDS011;3470;48.738;9.616;2023-05-01T13:58:22;4.53;;;4.10;;
6862;SDS011;3470;48.738;9.616;2023-05-01T14:00:48;5.32;;;4.82;;
6862;SDS011;3470;48.738;9.616;2023-05-01T14:03:14;4.75;;;4.35;;
6862;SDS011;3470;48.738;9.616;2023-05-01T14:05:40;6.82;;;5.45;;
6862;SDS011;3470;48.738;9.616;2023-05-01T14:08:07;6.28;;;5.72;;
6862;SDS011;3470;48.738;9.616;2023-05-01T14:10:33;5.15;;;4.53;;
6862;SDS011;3470;48.738;9.616;2023-05-01T14:12:58;5.47;;;4.90;;
6862;SDS011;3470;48.738;9.616;2023-05-01T14:15:24;7.20;;;5.93;;
6862;SDS011;3470;48.738;9.616;2023-05-01T14:17:50;4.40;;;4.00;;
6862;SDS011;3470;48.738;9.616;2023-05-01T14:20:16;4.95;;;4.45;;
6862;SDS011;3470;48.738;9.616;2023-05-01T14:22:43;6.82;;;4.50;;
6862;SDS011;3470;48.738;9.616;2023-05-01T14:27:53;4.95;;;4.55;;
6862;SDS011;3470;48.738;9.616;2023-05-01T14:30:26;4.97;;;4.43;;
6862;SDS011;3470;48.738;9.616;2023-05-01T14:32:54;5.45;;;4.47;;
6862;SDS011;3470;48.738;9.616;2023-05-01T14:35:21;6.40;;;5.03;;
6862;SDS011;3470;48.738;9.616;2023-05-01T14:37:47;5.45;;;4.88;;
6862;SDS011;3470;48.738;9.616;2023-05-01T14:40:13;5.82;;;5.32;;
6862;SDS011;3470;48.738;9.616;2023-05-01T14:42:41;6.50;;;5.90;;
6862;SDS011;3470;48.738;9.616;2023-05-01T14:45:16;6.93;;;6.00;;
6862;SDS011;3470;48.738;9.616;2023-05-01T14:47:45;6.80;;;5.97;;
6862;SDS011;3470;48.738;9.616;2023-05-01T14:50:12;23.33;;;18.80;;
6862;SDS011;3470;48.738;9.616;2023-05-01T14:52:50;7.75;;;6.95;;
6862;SDS011;3470;48.738;9.616;2023-05-01T14:55:24;6.70;;;6.07;;
6862;SDS011;3470;48.738;9.616;2023-05-01T14:57:55;9.23;;;8.32;;
6862;SDS011;3470;48.738;9.616;2023-05-01T15:00:21;5.03;;;4.53;;
6862;SDS011;3470;48.738;9.616;2023-05-01T15:02:48;7.75;;;6.10;;
6862;SDS011;3470;48.738;9.616;2023-05-01T15:05:14;5.95;;;5.38;;
6862;SDS011;3470;48.738;9.616;2023-05-01T15:07:40;5.50;;;4.95;;
6862;SDS011;3470;48.738;9.616;2023-05-01T15:10:06;6.82;;;5.38;;
6862;SDS011;3470;48.738;9.616;2023-05-01T15:12:32;9.02;;;7.78;;
6862;SDS011;3470;48.738;9.616;2023-05-01T15:14:57;16.67;;;10.98;;
6862;SDS011;3470;48.738;9.616;2023-05-01T15:17:23;17.45;;;13.00;;
6862;SDS011;3470;48.738;9.616;2023-05-01T15:19:49;10.63;;;9.48;;
6862;SDS011;3470;48.738;9.616;2023-05-01T15:22:14;9.52;;;8.52;;
6862;SDS011;3470;48.738;9.616;2023-05-01T15:24:40;9.77;;;8.77;;
6862;SDS011;3470;48.738;9.616;2023-05-01T15:27:06;9.35;;;8.48;;
6862;SDS011;3470;48.738;9.616;2023-05-01T15:29:32;9.25;;;8.35;;
6862;SDS011;3470;48.738;9.616;2023-05-01T15:31:58;9.65;;;8.20;;
6862;SDS011;3470;48.738;9.616;2023-05-01T15:34:24;9.70;;;8.70;;
6862;SDS011;3470;48.738;9.616;2023-05-01T15:36:50;12.05;;;9.93;;
6862;SDS011;3470;48.738;9.616;2023-05-01T15:39:15;11.10;;;10.10;;
6862;SDS011;3470;48.738;9.616;2023-05-01T15:41:41;12.57;;;11.38;;
6862;SDS011;3470;48.738;9.616;2023-05-01T15:44:07;12.52;;;11.43;;
6862;SDS011;3470;48.738;9.616;2023-05-01T15:46:35;12.60;;;11.30;;
6862;SDS011;3470;48.738;9.616;2023-05-01T15:49:01;13.07;;;11.88;;
6862;SDS011;3470;48.738;9.616;2023-05-01T15:51:28;13.35;;;11.98;;
6862;SDS011;3470;48.738;9.616;2023-05-01T15:53:55;13.07;;;11.77;;
6862;SDS011;3470;48.738;9.616;2023-05-01T15:56:21;13.52;;;12.15;;
6862;SDS011;3470;48.738;9.616;2023-05-01T15:58:46;12.93;;;11.65;;
6862;SDS011;3470;48.738;9.616;2023-05-01T16:01:12;12.27;;;10.98;;
6862;SDS011;3470;48.738;9.616;2023-05-01T16:03:39;12.82;;;11.60;;
6862;SDS011;3470;48.738;9.616;2023-05-01T16:06:15;13.70;;;12.48;;
6862;SDS011;3470;48.738;9.616;2023-05-01T16:08:41;13.20;;;12.00;;
6862;SDS011;3470;48.738;9.616;2023-05-01T16:11:10;13.73;;;12.23;;
6862;SDS011;3470;48.738;9.616;2023-05-01T16:13:37;15.33;;;11.83;;
6862;SDS011;3470;48.738;9.616;2023-05-01T16:16:05;11.47;;;10.37;;
6862;SDS011;3470;48.738;9.616;2023-05-01T16:18:33;10.37;;;9.47;;
6862;SDS011;3470;48.738;9.616;2023-05-01T16:20:59;8.13;;;7.32;;
6862;SDS011;3470;48.738;9.616;2023-05-01T16:23:25;7.43;;;6.63;;
6862;SDS011;3470;48.738;9.616;2023-05-01T16:25:51;7.03;;;5.77;;
6862;SDS011;3470;48.738;9.616;2023-05-01T16:28:16;6.80;;;6.20;;
6862;SDS011;3470;48.738;9.616;2023-05-01T16:30:42;7.57;;;6.33;;
6862;SDS011;3470;48.738;9.616;2023-05-01T16:33:16;7.40;;;6.27;;
6862;SDS011;3470;48.738;9.616;2023-05-01T16:35:43;7.77;;;6.67;;
6862;SDS011;3470;48.738;9.616;2023-05-01T16:38:10;11.83;;;10.67;;
6862;SDS011;3470;48.738;9.616;2023-05-01T16:40:36;8.93;;;8.03;;
6862;SDS011;3470;48.738;9.616;2023-05-01T16:43:02;8.80;;;7.90;;
6862;SDS011;3470;48.738;9.616;2023-05-01T16:45:29;9.23;;;8.43;;
6862;SDS011;3470;48.738;9.616;2023-05-01T16:47:56;10.10;;;8.10;;
6862;SDS011;3470;48.738;9.616;2023-05-01T16:50:22;9.13;;;8.23;;
6862;SDS011;3470;48.738;9.616;2023-05-01T16:52:48;9.70;;;8.57;;
6862;SDS011;3470;48.738;9.616;2023-05-01T16:55:14;9.73;;;8.73;;
6862;SDS011;3470;48.738;9.616;2023-05-01T16:57:40;9.00;;;8.20;;
6862;SDS011;3470;48.738;9.616;2023-05-01T17:00:06;9.83;;;8.77;;
6862;SDS011;3470;48.738;9.616;2023-05-01T17:02:35;9.75;;;8.85;;
6862;SDS011;3470;48.738;9.616;2023-05-01T17:05:01;10.00;;;9.02;;
6862;SDS011;3470;48.738;9.616;2023-05-01T17:07:27;11.07;;;10.05;;
6862;SDS011;3470;48.738;9.616;2023-05-01T17:09:53;10.27;;;9.37;;
6862;SDS011;3470;48.738;9.616;2023-05-01T17:12:19;11.63;;;10.43;;
6862;SDS011;3470;48.738;9.616;2023-05-01T17:14:44;11.53;;;10.43;;
6862;SDS011;3470;48.738;9.616;2023-05-01T17:17:10;10.80;;;9.70;;
6862;SDS011;3470;48.738;9.616;2023-05-01T17:19:36;11.73;;;10.53;;
6862;SDS011;3470;48.738;9.616;2023-05-01T17:22:05;11.30;;;10.30;;
6862;SDS011;3470;48.738;9.616;2023-05-01T17:24:31;11.07;;;9.90;;
6862;SDS011;3470;48.738;9.616;2023-05-01T17:26:58;11.60;;;10.40;;
6862;SDS011;3470;48.738;9.616;2023-05-01T17:29:24;12.87;;;10.77;;
6862;SDS011;3470;48.738;9.616;2023-05-01T17:31:51;11.45;;;10.35;;
6862;SDS011;3470;48.738;9.616;2023-05-01T17:34:16;12.37;;;11.17;;
6862;SDS011;3470;48.738;9.616;2023-05-01T17:36:42;12.50;;;11.00;;
6862;SDS011;3470;48.738;9.616;2023-05-01T17:39:07;13.17;;;11.83;;
6862;SDS011;3470;48.738;9.616;2023-05-01T17:41:33;12.83;;;11.63;;
6862;SDS011;3470;48.738;9.616;2023-05-01T17:43:58;12.27;;;11.07;;
6862;SDS011;3470;48.738;9.616;2023-05-01T17:46:24;13.13;;;11.93;;
6862;SDS011;3470;48.738;9.616;2023-05-01T17:48:50;13.53;;;12.20;;
6862;SDS011;3470;48.738;9.616;2023-05-01T17:51:16;14.63;;;13.13;;
6862;SDS011;3470;48.738;9.616;2023-05-01T17:53:42;13.83;;;12.03;;
6862;SDS011;3470;48.738;9.616;2023-05-01T17:56:07;14.80;;;13.20;;
6862;SDS011;3470;48.738;9.616;2023-05-01T17:58:33;14.50;;;13.00;;
6862;SDS011;3470;48.738;9.616;2023-05-01T18:00:59;14.83;;;13.33;;
6862;SDS011;3470;48.738;9.616;2023-05-01T18:03:28;14.83;;;13.33;;
6862;SDS011;3470;48.738;9.616;2023-05-01T18:05:56;14.87;;;13.40;;
6862;SDS011;3470;48.738;9.616;2023-05-01T18:08:22;15.67;;;13.93;;
6862;SDS011;3470;48.738;9.616;2023-05-01T18:10:48;16.00;;;14.40;;
6862;SDS011;3470;48.738;9.616;2023-05-01T18:13:13;15.20;;;13.70;;
6862;SDS011;3470;48.738;9.616;2023-05-01T18:15:40;14.70;;;13.20;;
6862;SDS011;3470;48.738;9.616;2023-05-01T18:18:06;15.03;;;12.93;;
6862;SDS011;3470;48.738;9.616;2023-05-01T18:20:32;14.83;;;13.30;;
6862;SDS011;3470;48.738;9.616;2023-05-01T18:22:57;15.40;;;13.80;;
6862;SDS011;3470;48.738;9.616;2023-05-01T18:25:23;16.33;;;12.77;;
6862;SDS011;3470;48.738;9.616;2023-05-01T18:27:49;14.00;;;12.70;;
6862;SDS011;3470;48.738;9.616;2023-05-01T18:30:14;14.17;;;12.77;;
6862;SDS011;3470;48.738;9.616;2023-05-01T18:32:40;22.60;;;18.80;;
6862;SDS011;3470;48.738;9.616;2023-05-01T18:35:06;16.77;;;15.07;;
6862;SDS011;3470;48.738;9.616;2023-05-01T18:37:32;16.47;;;14.37;;
6862;SDS011;3470;48.738;9.616;2023-05-01T18:39:58;15.53;;;13.93;;
6862;SDS011;3470;48.738;9.616;2023-05-01T18:42:24;15.20;;;13.70;;
6862;SDS011;3470;48.738;9.616;2023-05-01T18:44:49;15.13;;;13.63;;
6862;SDS011;3470;48.738;9.616;2023-05-01T18:47:16;15.93;;;14.43;;
6862;SDS011;3470;48.738;9.616;2023-05-01T18:49:41;19.73;;;17.27;;
6862;SDS011;3470;48.738;9.616;2023-05-01T18:52:07;17.30;;;15.50;;
6862;SDS011;3470;48.738;9.616;2023-05-01T18:54:32;18.43;;;14.90;;
6862;SDS011;3470;48.738;9.616;2023-05-01T18:56:58;16.83;;;14.10;;
6862;SDS011;3470;48.738;9.616;2023-05-01T18:59:25;18.13;;;16.20;;
6862;SDS011;3470;48.738;9.616;2023-05-01T19:01:54;18.20;;;15.47;;
6862;SDS011;3470;48.738;9.616;2023-05-01T19:04:20;16.47;;;14.87;;
6862;SDS011;3470;48.738;9.616;2023-05-01T19:06:46;15.80;;;14.30;;
6862;SDS011;3470;48.738;9.616;2023-05-01T19:09:12;15.90;;;14.27;;
6862;SDS011;3470;48.738;9.616;2023-05-01T19:11:37;16.40;;;14.67;;
6862;SDS011;3470;48.738;9.616;2023-05-01T19:14:03;15.90;;;14.07;;
6862;SDS011;3470;48.738;9.616;2023-05-01T19:16:29;16.17;;;13.83;;
6862;SDS011;3470;48.738;9.616;2023-05-01T19:18:55;16.07;;;14.47;;
6862;SDS011;3470;48.738;9.616;2023-05-01T19:21:20;18.70;;;14.70;;
6862;SDS011;3470;48.738;9.616;2023-05-01T19:23:46;17.43;;;15.63;;
6862;SDS011;3470;48.738;9.616;2023-05-01T19:26:13;19.47;;;16.53;;
6862;SDS011;3470;48.738;9.616;2023-05-01T19:28:39;17.90;;;16.10;;
6862;SDS011;3470;48.738;9.616;2023-05-01T19:31:06;18.20;;;16.33;;
6862;SDS011;3470;48.738;9.616;2023-05-01T19:33:32;17.27;;;15.47;;
6862;SDS011;3470;48.738;9.616;2023-05-01T19:35:57;18.00;;;16.10;;
6862;SDS011;3470;48.738;9.616;2023-05-01T19:38:23;17.60;;;15.70;;
6862;SDS011;3470;48.738;9.616;2023-05-01T19:40:49;18.30;;;16.40;;
6862;SDS011;3470;48.738;9.616;2023-05-01T19:43:15;18.47;;;16.37;;
6862;SDS011;3470;48.738;9.616;2023-05-01T19:45:41;20.43;;;18.30;;
6862;SDS011;3470;48.738;9.616;2023-05-01T19:48:07;18.40;;;16.47;;
6862;SDS011;3470;48.738;9.616;2023-05-01T19:50:33;19.10;;;17.20;;
6862;SDS011;3470;48.738;9.616;2023-05-01T19:52:58;17.93;;;16.03;;
6862;SDS011;3470;48.738;9.616;2023-05-01T19:55:24;19.57;;;17.30;;
6862;SDS011;3470;48.738;9.616;2023-05-01T19:57:50;21.23;;;18.93;;
6862;SDS011;3470;48.738;9.616;2023-05-01T20:00:16;21.73;;;19.53;;
6862;SDS011;3470;48.738;9.616;2023-05-01T20:02:42;20.80;;;18.57;;
6862;SDS011;3470;48.738;9.616;2023-05-01T20:05:08;21.93;;;19.63;;
6862;SDS011;3470;48.738;9.616;2023-05-01T20:07:34;23.13;;;19.83;;
6862;SDS011;3470;48.738;9.616;2023-05-01T20:10:00;24.07;;;19.87;;
6862;SDS011;3470;48.738;9.616;2023-05-01T20:12:26;22.20;;;19.90;;
6862;SDS011;3470;48.738;9.616;2023-05-01T20:14:52;23.40;;;19.97;;
6862;SDS011;3470;48.738;9.616;2023-05-01T20:17:18;22.83;;;20.43;;
6862;SDS011;3470;48.738;9.616;2023-05-01T20:19:43;23.83;;;20.03;;
6862;SDS011;3470;48.738;9.616;2023-05-01T20:22:09;27.33;;;22.20;;
6862;SDS011;3470;48.738;9.616;2023-05-01T20:24:35;28.27;;;23.80;;
6862;SDS011;3470;48.738;9.616;2023-05-01T20:27:02;25.77;;;22.87;;
6862;SDS011;3470;48.738;9.616;2023-05-01T20:29:28;26.27;;;23.47;;
6862;SDS011;3470;48.738;9.616;2023-05-01T20:31:54;25.90;;;23.07;;
6862;SDS011;3470;48.738;9.616;2023-05-01T20:34:20;27.77;;;23.97;;
6862;SDS011;3470;48.738;9.616;2023-05-01T20:36:47;29.53;;;23.80;;
6862;SDS011;3470;48.738;9.616;2023-05-01T20:39:12;27.83;;;23.83;;
6862;SDS011;3470;48.738;9.616;2023-05-01T20:41:38;28.33;;;23.97;;
6862;SDS011;3470;48.738;9.616;2023-05-01T20:44:04;31.90;;;24.40;;
6862;SDS011;3470;48.738;9.616;2023-05-01T20:46:30;28.90;;;24.90;;
6862;SDS011;3470;48.738;9.616;2023-05-01T20:48:56;31.87;;;25.43;;
6862;SDS011;3470;48.738;9.616;2023-05-01T20:51:21;29.67;;;24.90;;
6862;SDS011;3470;48.738;9.616;2023-05-01T20:53:47;26.23;;;22.27;;
6862;SDS011;3470;48.738;9.616;2023-05-01T20:56:13;31.80;;;24.27;;
6862;SDS011;3470;48.738;9.616;2023-05-01T20:58:38;27.73;;;23.70;;
6862;SDS011;3470;48.738;9.616;2023-05-01T21:01:04;28.47;;;24.37;;
6862;SDS011;3470;48.738;9.616;2023-05-01T21:03:31;28.87;;;23.67;;
6862;SDS011;3470;48.738;9.616;2023-05-01T21:06:00;29.60;;;24.00;;
6862;SDS011;3470;48.738;9.616;2023-05-01T21:08:26;30.17;;;23.57;;
6862;SDS011;3470;48.738;9.616;2023-05-01T21:10:52;26.43;;;21.77;;
6862;SDS011;3470;48.738;9.616;2023-05-01T21:13:18;29.80;;;22.00;;
6862;SDS011;3470;48.738;9.616;2023-05-01T21:15:45;27.47;;;22.33;;
6862;SDS011;3470;48.738;9.616;2023-05-01T21:18:11;26.40;;;20.53;;
6862;SDS011;3470;48.738;9.616;2023-05-01T21:20:38;24.77;;;19.20;;
6862;SDS011;3470;48.738;9.616;2023-05-01T21:23:09;27.97;;;20.33;;
6862;SDS011;3470;48.738;9.616;2023-05-01T21:25:38;23.97;;;19.70;;
6862;SDS011;3470;48.738;9.616;2023-05-01T21:28:03;24.63;;;19.40;;
6862;SDS011;3470;48.738;9.616;2023-05-01T21:30:31;21.00;;;17.43;;
6862;SDS011;3470;48.738;9.616;2023-05-01T21:32:58;21.77;;;18.13;;
6862;SDS011;3470;48.738;9.616;2023-05-01T21:35:25;20.53;;;17.23;;
6862;SDS011;3470;48.738;9.616;2023-05-01T21:37:52;23.23;;;17.37;;
6862;SDS011;3470;48.738;9.616;2023-05-01T21:40:17;20.00;;;17.13;;
6862;SDS011;3470;48.738;9.616;2023-05-01T21:42:43;20.53;;;16.93;;
6862;SDS011;3470;48.738;9.616;2023-05-01T21:48:07;19.63;;;16.00;;
6862;SDS011;3470;48.738;9.616;2023-05-01T21:50:33;21.37;;;17.17;;
6862;SDS011;3470;48.738;9.616;2023-05-01T21:53:00;20.70;;;17.23;;
6862;SDS011;3470;48.738;9.616;2023-05-01T21:55:26;23.70;;;18.37;;
6862;SDS011;3470;48.738;9.616;2023-05-01T21:57:52;23.17;;;18.77;;
6862;SDS011;3470;48.738;9.616;2023-05-01T22:00:19;20.83;;;17.83;;
6862;SDS011;3470;48.738;9.616;2023-05-01T22:02:46;23.40;;;19.13;;
6862;SDS011;3470;48.738;9.616;2023-05-01T22:05:13;21.83;;;18.63;;
6862;SDS011;3470;48.738;9.616;2023-05-01T22:07:40;24.97;;;19.10;;
6862;SDS011;3470;48.738;9.616;2023-05-01T22:10:08;23.50;;;18.00;;
6862;SDS011;3470;48.738;9.616;2023-05-01T22:12:35;21.07;;;18.07;;
6862;SDS011;3470;48.738;9.616;2023-05-01T22:15:02;25.23;;;18.13;;
6862;SDS011;3470;48.738;9.616;2023-05-01T22:17:28;22.43;;;18.10;;
6862;SDS011;3470;48.738;9.616;2023-05-01T22:19:54;20.37;;;17.70;;
6862;SDS011;3470;48.738;9.616;2023-05-01T22:22:19;23.13;;;18.30;;
6862;SDS011;3470;48.738;9.616;2023-05-01T22:24:45;20.40;;;18.17;;
6862;SDS011;3470;48.738;9.616;2023-05-01T22:27:10;18.63;;;16.63;;
6862;SDS011;3470;48.738;9.616;2023-05-01T22:29:36;21.83;;;17.67;;
6862;SDS011;3470;48.738;9.616;2023-05-01T22:32:01;21.40;;;17.47;;
6862;SDS011;3470;48.738;9.616;2023-05-01T22:34:27;20.00;;;17.57;;
6862;SDS011;3470;48.738;9.616;2023-05-01T22:36:53;21.07;;;17.77;;
6862;SDS011;3470;48.738;9.616;2023-05-01T22:39:18;20.37;;;17.37;;
6862;SDS011;3470;48.738;9.616;2023-05-01T22:41:46;21.13;;;17.63;;
6862;SDS011;3470;48.738;9.616;2023-05-01T22:44:12;22.53;;;18.83;;
6862;SDS011;3470;48.738;9.616;2023-05-01T22:46:38;21.67;;;17.43;;
6862;SDS011;3470;48.738;9.616;2023-05-01T22:49:03;20.67;;;17.93;;
6862;SDS011;3470;48.738;9.616;2023-05-01T22:51:29;21.53;;;18.60;;
6862;SDS011;3470;48.738;9.616;2023-05-01T22:53:54;22.90;;;18.70;;
6862;SDS011;3470;48.738;9.616;2023-05-01T22:56:20;23.80;;;18.40;;
6862;SDS011;3470;48.738;9.616;2023-05-01T22:58:46;27.37;;;20.40;;
6862;SDS011;3470;48.738;9.616;2023-05-01T23:01:11;24.23;;;19.20;;
6862;SDS011;3470;48.738;9.616;2023-05-01T23:03:37;27.33;;;19.73;;
6862;SDS011;3470;48.738;9.616;2023-05-01T23:06:03;22.57;;;18.73;;
6862;SDS011;3470;48.738;9.616;2023-05-01T23:08:30;24.77;;;19.30;;
6862;SDS011;3470;48.738;9.616;2023-05-01T23:10:57;23.27;;;18.83;;
6862;SDS011;3470;48.738;9.616;2023-05-01T23:13:23;28.40;;;20.70;;
6862;SDS011;3470;48.738;9.616;2023-05-01T23:15:50;27.27;;;20.50;;
6862;SDS011;3470;48.738;9.616;2023-05-01T23:18:23;26.27;;;20.50;;
6862;SDS011;3470;48.738;9.616;2023-05-01T23:20:57;25.33;;;19.33;;
6862;SDS011;3470;48.738;9.616;2023-05-01T23:23:24;23.93;;;18.53;;
6862;SDS011;3470;48.738;9.616;2023-05-01T23:25:53;25.83;;;19.97;;